Etusivu
METAR-TAF:

METAR-TAF

Lentoasemat :

Fort Knox, Kentucky, Yhdysvallat

Leveyspiiri: 37-54N, Pituuspiiri: 085-58W, korkeus merenpinnasta: 230 m

Tämänhetkinen sää

Tämä raportti tehtiin 15 tuntia ja 25 minuuttia sitten, kello 17.56 UTC
Tuuli 3 kn eri suunnista
Lämpötila 17°C
Kosteus 55%
Ilmanpaine 1020 hPa
Näkyvyys: 16.1 km
selkeää

METAR: KFTK 211756Z VRB03KT 10SM CLR 17/08 A3012 RMK SLPNO AO2A WND DATA ESTMD ALSTG ESTMD

Aika: 05:21 (09:21 UTC)

Sääennuste

Tämä raportti tehtiin 21 minuuttia sitten, kello 09.00 UTC
Ennuste voimassa 22. päivästä klo 09 UTC - 23. päivään klo 15 UTC
Tuuli 6 kn etelästä/lounaasta
Näkyvyys 10 km tai enemmän
Muutamia pilviä 15000 ft:n korkeudessa

TAF: KFTK 220900Z 2209/2315 20006KT 9999 FEW150 QNH3010INS TX23/2219Z TN09/2211Z

Säähavainnot ja -ennusteet yli 4000 lentoasemalta (METAR- ja TAF-raportit).

Käytössä olevat sääasemat on merkitty karttaan keltaisilla ja punaisilla pisteillä.

Aseta hiiri pisteen päälle nähdäksesi sääaseman nimen.

Klikkaa sitten nähdäksesi säähavainnot ja -ennusteet.

Kartan vaihtaminen: klikkaa mustalla rastilla varustettuja vihreitä pisteitä, niin voit zoomata sisään; viivalla varustettua vihreää pistettä, niin voit zoomata ulos tai vihreitä nuolia, niin pääset viereisille kartoille.


METAR-TAF: